Buckley Hill, United Kingdom
Current Conditions -  °F | °C
As of 7:20 PM on Tuesday 21 Oct 2014 (Local Time) from EGGP Reporting Station
Rain Showers Rain Showers  
Wind Chill:   Ceiling: Unl
Heat Index:   Visibility: 4mi
Dew Point:   Wind: 24mph
Humidity: 76%   Direction: 310°NW
Pressure: 29.97"   Gusts: 41mph
Location:  53.48°N, 2.99°W
Report Text: EGGP 211820Z 31021G36KT 7000 SHRA FEW023 SCT032 08/04 Q1015
Loading
Personal Weather Stations






























Interactive Weather Map
Tropical Storm Tracking
New forecast layout! Learn more

10-Day Weather Forecast

Advertisements
Track Severe Weather on mobile